Airfield :
LOGIN :

Register | Disclaimer

   EN    FR    IT 

 










Legend :    VFR   Marginal VFR   IFR   Intensive IFR   Very Intensive IFR
Visi :
Ceiling :
>= 8 km
>= 3000ft
5 to 8 km
1000 to 3000 ft
1500m to 5 km
500 to 1000 ft
800 to 1500m
200 to 500 ft
< 800m
< 200 ft
Symbols :   Thunderstorms  Fog  Heavy snow  Heavy precipitations  Wind > 20 kt
SIGMETs :     Misc.  Thunderstorms  Icing  Turbulence  Mountain Waves  Volcanic Ashes






- Airport Elevation : 16 ft
- IATA code : SDR


LEXJ - Santander Cantabria

CURRENT METAR :
  • 200430Z 00000KT CAVOK 05/04 Q1023

EXPIRED METARs :
  • 200400Z AUTO VRB02KT 6000 NCD 05/04 Q1023
  • 200330Z AUTO VRB01KT 6000 NCD 05/04 Q1022
  • 200300Z AUTO 00000KT 6000 NCD 05/04 Q1023
  • 200230Z AUTO 21002KT 4300 BR NCD 05/05 Q1023
  • 200200Z AUTO 00000KT 4700 BR NCD 05/05 Q1023

TAF TAF LEXJ
Valid from the 20 at 03:00 until the 21 at 03:00 UTC


200200Z 2003/2103 21005KT CAVOK TX15/2012Z TN04/2005Z
TEMPO 2011/2016 30010KT
PROB30
TEMPO 2100/2103 3000 -RADZ BKN010



MET'MAP, your aeronautical weather chart ! - Copyright ORBIFLY December 2007 - Disclaimer

ORBIFLY MET'MAP TEAM :

Programming & Development : Alexandra Zaïnal
Concept & original design : Baudouin d'Aumeries
Assistance for programming : Marc-Olivier Méhu
Technical & hardware support : Manuel Goepfert

Contact : metmap@orbifly.com




SOURCES & CREDITS :

   NOAA